地図

経路データ

SID SEASON NUMBER BASIN SUBBASIN NAME ISO_TIME NATURE LAT LON WMO_WIND WMO_PRES WMO_AGENCY TRACK_TYPE DIST2LAND LANDFALL IFLAG USA_AGENCY USA_ATCF_ID USA_LAT USA_LON USA_RECORD USA_STATUS USA_WIND USA_PRES USA_SSHS USA_R34_NE USA_R34_SE USA_R34_SW USA_R34_NW USA_R50_NE USA_R50_SE USA_R50_SW USA_R50_NW USA_R64_NE USA_R64_SE USA_R64_SW USA_R64_NW USA_POCI USA_ROCI USA_RMW USA_EYE TOKYO_LAT TOKYO_LON TOKYO_GRADE TOKYO_WIND TOKYO_PRES TOKYO_R50_DIR TOKYO_R50_LONG TOKYO_R50_SHORT TOKYO_R30_DIR TOKYO_R30_LONG TOKYO_R30_SHORT TOKYO_LAND CMA_LAT CMA_LON CMA_CAT CMA_WIND CMA_PRES HKO_LAT HKO_LON HKO_CAT HKO_WIND HKO_PRES NEWDELHI_LAT NEWDELHI_LON NEWDELHI_GRADE NEWDELHI_WIND NEWDELHI_PRES NEWDELHI_CI NEWDELHI_DP NEWDELHI_POCI REUNION_LAT REUNION_LON REUNION_TYPE REUNION_WIND REUNION_PRES REUNION_TNUM REUNION_CI REUNION_RMW REUNION_R34_NE REUNION_R34_SE REUNION_R34_SW REUNION_R34_NW REUNION_R50_NE REUNION_R50_SE REUNION_R50_SW REUNION_R50_NW REUNION_R64_NE REUNION_R64_SE REUNION_R64_SW REUNION_R64_NW BOM_LAT BOM_LON BOM_TYPE BOM_WIND BOM_PRES BOM_TNUM BOM_CI BOM_RMW BOM_R34_NE BOM_R34_SE BOM_R34_SW BOM_R34_NW BOM_R50_NE BOM_R50_SE BOM_R50_SW BOM_R50_NW BOM_R64_NE BOM_R64_SE BOM_R64_SW BOM_R64_NW BOM_ROCI BOM_POCI BOM_EYE BOM_POS_METHOD BOM_PRES_METHOD NADI_LAT NADI_LON NADI_CAT NADI_WIND NADI_PRES WELLINGTON_LAT WELLINGTON_LON WELLINGTON_WIND WELLINGTON_PRES DS824_LAT DS824_LON DS824_STAGE DS824_WIND DS824_PRES TD9636_LAT TD9636_LON TD9636_STAGE TD9636_WIND TD9636_PRES TD9635_LAT TD9635_LON TD9635_WIND TD9635_PRES TD9635_ROCI NEUMANN_LAT NEUMANN_LON NEUMANN_CLASS NEUMANN_WIND NEUMANN_PRES MLC_LAT MLC_LON MLC_CLASS MLC_WIND MLC_PRES USA_GUST BOM_GUST BOM_GUST_PER REUNION_GUST REUNION_GUST_PER USA_SEAHGT USA_SEARAD_NE USA_SEARAD_SE USA_SEARAD_SW USA_SEARAD_NW STORM_SPEED STORM_DIR
1980256N10154 1980 76 WP MM SPERRY 1980-09-12 06:00:00 TS 10.1000 153.700 main 1467 1465 O________OO___ jtwc_wp WP201980 10.1000 153.700 15 -1 10.1000 153.700 TC 15 10.1000 153.700 0 15 7 302
1980256N10154 1980 76 WP MM SPERRY 1980-09-12 09:00:00 TS 10.2857 153.395 main 1482 1480 P________PP___ WP201980 10.2925 153.400 15 -1 10.2925 153.400 TC 15 10.2720 153.386 0 15 7 304
1980256N10154 1980 76 WP MM SPERRY 1980-09-12 12:00:00 TS 10.5000 153.100 main 1499 1499 O________OO___ jtwc_wp WP201980 10.5000 153.100 15 -1 10.5000 153.100 TC 15 10.5000 153.100 0 15 7 311
1980256N10154 1980 76 WP MM SPERRY 1980-09-12 15:00:00 TS 10.7739 152.830 main 1527 1527 P________PP___ WP201980 10.7475 152.813 17 -1 10.7475 152.813 TC 17 10.8265 152.864 0 16 8 324
1980256N10154 1980 76 WP MM SPERRY 1980-09-12 18:00:00 TS 11.1458 152.628 main 1557 1557 O________OP___ jtwc_wp WP201980 11.1000 152.600 20 -1 11.1000 152.600 TC 20 11.2375 152.684 0 17 9 341
1980256N10154 1980 76 WP MM SPERRY 1980-09-12 21:00:00 TS 11.6482 152.514 main 1612 1612 P________PP___ WP201980 11.6200 152.490 20 -1 11.6200 152.490 TC 20 11.7047 152.563 0 18 11 353
1980256N10154 1980 76 WP MM SPERRY 1980-09-13 00:00:00 TS 12.2000 152.500 main 1678 1678 O________OO___ jtwc_wp WP201980 12.2000 152.500 20 -1 12.2000 152.500 TC 20 12.2000 152.500 1 20 11 5
1980256N10154 1980 76 WP MM SPERRY 1980-09-13 03:00:00 TS 12.7005 152.609 main 1735 1735 P________PP___ WP201980 12.7075 152.650 20 -1 12.7075 152.650 TC 20 12.6865 152.528 1 20 10 13
1980256N10154 1980 76 WP MM SPERRY 1980-09-13 06:00:00 TS 13.1975 152.735 main 1792 1792 O________OP___ jtwc_wp WP201980 13.2000 152.800 20 -1 13.2000 152.800 TC 20 13.1924 152.606 1 20 10 8
1980256N10154 1980 76 WP MM SPERRY 1980-09-13 09:00:00 TS 13.7057 152.757 main 1849 1849 P________PP___ WP201980 13.7075 152.795 20 -1 13.7075 152.795 TC 20 13.7021 152.681 1 20 10 358
1980256N10154 1980 76 WP MM SPERRY 1980-09-13 12:00:00 TS 14.2000 152.700 main 1903 1903 O________OO___ jtwc_wp WP201980 14.2000 152.700 20 -1 14.2000 152.700 TC 20 14.2000 152.700 1 20 10 351
1980256N10154 1980 76 WP MM SPERRY 1980-09-13 15:00:00 TS 14.6529 152.592 main 1958 1958 P________PP___ WP201980 14.6575 152.572 20 -1 14.6575 152.572 TC 20 14.6438 152.630 1 21 9 344
1980256N10154 1980 76 WP MM SPERRY 1980-09-13 18:00:00 TS 15.0924 152.430 main 2000 2000 O________OP___ jtwc_wp WP201980 15.1000 152.400 20 -1 15.1000 152.400 TC 20 15.0771 152.491 1 22 9 339
1980256N10154 1980 76 WP MM SPERRY 1980-09-13 21:00:00 TS 15.5305 152.252 main 2044 2044 P________PP___ WP201980 15.5349 152.237 22 -1 15.5349 152.237 TC 22 15.5218 152.282 1 23 10 332
1980256N10154 1980 76 WP MM SPERRY 1980-09-14 00:00:00 TS 16.0000 151.923 main 2087 2087 O_O______OO___ jtwc_wp WP201980 16.0000 152.000 25 -1 16.0000 151.000 0 19 1006 16.0000 152.000 TC 25 16.0000 152.000 1 25 12 326
1980256N10154 1980 76 WP MM SPERRY 1980-09-14 03:00:00 TS 16.5559 151.526 main 2142 2142 P_P______PP___ WP201980 16.5275 151.637 25 -1 16.6552 150.738 0 19 1006 16.5275 151.637 TC 25 16.5629 151.695 1 26 14 325
1980256N10154 1980 76 WP MM SPERRY 1980-09-14 06:00:00 TS 17.1551 151.091 main 2199 2197 O_O______OP___ jtwc_wp WP201980 17.1000 151.200 25 -1 17.3000 150.500 0 19 1006 17.1000 151.200 TC 25 17.1565 151.315 1 27 15 326
1980256N10154 1980 76 WP MM SPERRY 1980-09-14 09:00:00 TS 17.7709 150.678 main 2188 2104 P_P______PP___ WP201980 17.7072 150.787 27 -1 17.9223 150.287 0 24 1004 17.7072 150.787 TC 27 17.7469 150.851 1 28 15 326
1980256N10154 1980 76 WP MM SPERRY 1980-09-14 12:00:00 TS 18.3882 150.212 1004 tokyo main 2104 2030 OOO______OO___ jtwc_wp WP201980 18.3000 150.300 30 -1 19.0000 150.000 2 1004 0 0 0 18.5000 150.000 1 29 1002 18.3000 150.300 TC 30 18.3000 150.300 1 30 15 319
1980256N10154 1980 76 WP MM SPERRY 1980-09-14 15:00:00 TS 18.9277 149.630 main 2026 1948 PPP______PP___ WP201980 18.8373 149.702 30 -1 19.3103 149.363 2 1002 0 0 19.0522 149.575 1 29 1002 18.8373 149.702 TC 30 18.7926 149.673 1 31 16 310
1980256N10154 1980 76 WP MM SPERRY 1980-09-14 18:00:00 TS 19.3768 148.945 1000 tokyo main 1943 1882 OOO______OP___ jtwc_wp WP201980 19.3000 149.000 30 -1 19.6000 148.700 2 1000 0 0 0 19.5000 149.000 1 29 1002 19.3000 149.000 TC 30 19.2400 148.962 1 32 16 300
1980256N10154 1980 76 WP MM SPERRY 1980-09-14 21:00:00 TS 19.7279 148.185 main 1882 1819 PPP______PP___ WP201980 19.6799 148.222 32 -1 19.8574 148.000 2 998 0 0 19.7801 148.287 1 29 1001 19.6799 148.222 TC 32 19.6423 148.195 1 33 16 294
1980256N10154 1980 76 WP MM SPERRY 1980-09-15 00:00:00 TS 20.0190 147.405 996 tokyo main 1819 1760 OOOO_____OO___ jtwc_wp WP201980 20.0000 147.400 35 0 20.1000 147.300 2 996 0 0 0 20.0000 147.500 1 29 1000 20.0000 147.500 TD 25 994 20.0000 147.400 TC 35 20.0000 147.400 2 35 16 292
1980256N10154 1980 76 WP MM SPERRY 1980-09-15 03:00:00 TS 20.3159 146.655 main 1760 1701 PPPP_____PP___ WP201980 20.3146 146.600 37 0 20.3420 146.657 2 995 0 0 20.2996 146.757 1 33 997 20.2984 146.741 TD 30 994 20.3146 146.600 TC 37 20.3175 146.620 2 36 15 292
1980256N10154 1980 76 WP MM SPERRY 1980-09-15 06:00:00 TS 20.5990 145.899 40 994 tokyo main 1701 1646 OOOO_____OP___ jtwc_wp WP201980 20.6000 145.800 40 0 20.6000 146.000 3 40 994 0 9 75 75 0 20.6000 146.000 2 38 995 20.6000 146.000 TS 35 995 20.6000 145.800 TC 40 20.5941 145.820 2 37 15 291
1980256N10154 1980 76 WP MM SPERRY 1980-09-15 09:00:00 TS 20.8672 145.136 main 1643 1602 PPPP_____PP___ WP201980 20.8570 145.007 40 0 20.8919 145.295 3 42 993 0 9 87 87 20.8421 145.214 2 38 995 20.9067 145.280 TS 37 995 20.8570 145.007 TC 40 20.8486 145.011 2 38 16 290
1980256N10154 1980 76 WP MM SPERRY 1980-09-15 12:00:00 TS 21.1333 144.333 45 992 tokyo main 1599 1538 OOOO_____OO___ jtwc_wp WP201980 21.1000 144.200 40 0 21.2000 144.500 3 45 992 0 9 100 100 0 21.1000 144.400 2 38 995 21.2000 144.500 TS 40 996 21.1000 144.200 TC 40 21.1000 144.200 2 40 17 289
1980256N10154 1980 76 WP MM SPERRY 1980-09-15 15:00:00 TS 21.4098 143.448 main 1534 1467 PPPP_____PP___ WP201980 21.3424 143.342 40 0 21.5005 143.543 3 45 992 0 9 112 95 21.4574 143.543 2 38 995 21.4580 143.542 TS 40 996 21.3424 143.342 TC 40 21.3583 143.379 2 40 17 289
1980256N10154 1980 76 WP MM SPERRY 1980-09-15 18:00:00 TS 21.6866 142.577 45 992 tokyo main 1467 1416 OOOO_____OP___ jtwc_wp WP201980 21.6000 142.500 40 0 21.8000 142.600 3 45 992 0 1 125 90 0 21.8000 142.700 2 38 995 21.7000 142.600 TS 40 997 21.6000 142.500 TC 40 21.6195 142.561 2 40 16 290
1980256N10154 1980 76 WP MM SPERRY 1980-09-15 21:00:00 TS 21.9533 141.816 main 1402 1354 PPPP_____PP___ WP201980 21.8845 141.727 40 0 22.1067 141.862 3 45 992 0 1 125 107 22.0067 141.949 2 38 995 21.9416 141.869 TS 40 997 21.8845 141.727 TC 40 21.8959 141.763 2 40 15 292
1980256N10154 1980 76 WP MM SPERRY 1980-09-16 00:00:00 TS 22.2333 141.100 45 992 tokyo main 1354 1297 OOOO_____OO___ jtwc_wp WP201980 22.2000 141.000 40 0 22.4000 141.200 3 45 992 0 9 125 125 0 22.2000 141.200 2 38 995 22.2000 141.200 TS 40 998 22.2000 141.000 TC 40 22.2000 141.000 2 40 15 293
1980256N10154 1980 76 WP MM SPERRY 1980-09-16 03:00:00 TS 22.5338 140.352 main 1297 1243 PPPP_____PP___ WP201980 22.5347 140.285 40 0 22.6422 140.499 3 45 992 0 9 125 125 22.4852 140.335 2 38 995 22.4849 140.450 TS 40 997 22.5347 140.285 TC 40 22.5211 140.256 2 41 15 295
1980256N10154 1980 76 WP MM SPERRY 1980-09-16 06:00:00 TS 22.8624 139.625 45 992 tokyo main 1229 1180 OOOO_____OP___ jtwc_wp WP201980 22.9000 139.600 40 0 22.9000 139.800 3 45 992 0 9 125 125 0 22.8000 139.500 2 38 995 22.8000 139.700 TS 40 997 22.9000 139.600 TC 40 22.8742 139.551 2 42 15 297
1980256N10154 1980 76 WP MM SPERRY 1980-09-16 09:00:00 TS 23.2010 138.940 main 1176 1104 PPPP_____PP___ WP201980 23.2772 138.935 42 0 23.2048 139.092 3 45 992 0 9 125 125 23.0620 138.804 2 43 992 23.1198 138.977 TS 40 995 23.2772 138.935 TC 42 23.2652 138.896 2 43 14 301
1980256N10154 1980 76 WP MM SPERRY 1980-09-16 12:00:00 TS 23.6000 138.300 45 992 tokyo main 1104 1023 OOOO_____OO___ jtwc_wp WP201980 23.7000 138.300 45 0 23.6000 138.400 3 45 992 0 9 125 125 0 23.4000 138.200 3 48 990 23.5000 138.300 TS 40 994 23.7000 138.300 TC 45 23.7000 138.300 2 45 15 307
1980256N10154 1980 76 WP MM SPERRY 1980-09-16 15:00:00 TS 24.0883 137.660 main 1023 942 PPPP_____PP___ WP201980 24.1776 137.655 47 0 24.1276 137.698 3 47 991 0 9 137 137 23.9199 137.605 3 48 990 23.9700 137.648 TS 42 992 24.1776 137.655 TC 47 24.1571 137.699 2 47 15 313
1980256N10154 1980 76 WP MM SPERRY 1980-09-16 18:00:00 TS 24.6266 137.111 50 990 tokyo main 942 873 OOOO_____OP___ jtwc_wp WP201980 24.7000 137.100 50 0 24.7000 137.100 4 50 990 9 9 150 150 0 24.5000 137.100 3 48 990 24.5000 137.100 TS 45 991 24.7000 137.100 TC 50 24.6598 137.164 2 50 14 320
1980256N10154 1980 76 WP MM SPERRY 1980-09-16 21:00:00 TS 25.1381 136.694 main 873 801 PPPP_____PP___ WP201980 25.2197 136.689 52 0 25.1846 136.682 4 50 990 9 9 150 115 24.9698 136.697 3 53 985 25.0272 136.682 TS 45 990 25.2197 136.689 TC 52 25.2075 136.722 2 52 13 329
1980256N10154 1980 76 WP MM SPERRY 1980-09-17 00:00:00 TS 25.7000 136.400 50 990 tokyo main 801 736 OOOO_____OO___ jtwc_wp WP201980 25.8000 136.400 55 0 25.7000 136.400 4 50 990 9 1 150 80 0 25.5000 136.400 3 58 980 25.6000 136.400 TS 45 990 25.8000 136.400 TC 55 25.8000 136.400 2 55 13 338
1980256N10154 1980 76 WP MM SPERRY 1980-09-17 03:00:00 TS 26.3724 136.151 main 727 663 PPPP_____PP___ WP201980 26.4849 136.133 55 0 26.3274 136.140 4 52 990 9 30 30 1 150 80 26.2200 136.140 3 58 980 26.2499 136.205 TS 47 989 26.4849 136.133 TC 55 26.4670 136.155 2 55 14 346
1980256N10154 1980 76 WP MM SPERRY 1980-09-17 06:00:00 TS 27.0784 136.023 55 990 tokyo main 654 606 OOOO_____OP___ jtwc_wp WP201980 27.2000 136.000 55 0 27.0000 136.000 4 55 990 9 40 40 1 150 80 0 27.0000 136.000 3 58 980 26.9000 136.100 STS 50 989 27.2000 136.000 TC 55 27.1706 136.038 2 55 14 354
1980256N10154 1980 76 WP MM SPERRY 1980-09-17 09:00:00 TS 27.7410 136.006 main 606 569 PPPP_____PP___ WP201980 27.8723 136.017 55 0 27.6649 135.982 4 55 990 9 40 40 1 150 80 27.7223 135.975 3 58 980 27.4499 135.990 STS 50 988 27.8723 136.017 TC 55 27.8640 136.052 2 55 13 4
1980256N10154 1980 76 WP MM SPERRY 1980-09-17 12:00:00 TS 28.3667 136.133 55 990 tokyo main 558 504 OOOO_____OO___ jtwc_wp WP201980 28.5000 136.200 55 0 28.3000 136.100 4 55 990 9 40 40 2 150 80 0 28.4000 136.100 3 58 980 28.0000 136.000 STS 50 988 28.5000 136.200 TC 55 28.5000 136.200 2 55 13 15
1980256N10154 1980 76 WP MM SPERRY 1980-09-17 15:00:00 TS 28.9788 136.374 main 494 443 PPPP_____PP___ WP201980 29.0950 136.497 55 0 28.8872 136.275 4 55 990 9 40 40 2 150 80 29.0525 136.347 3 58 980 28.6799 136.182 STS 50 987 29.0950 136.497 TC 55 29.0634 136.444 2 56 13 25
1980256N10154 1980 76 WP MM SPERRY 1980-09-17 18:00:00 TS 29.5096 136.736 55 990 tokyo main 443 409 OOOO_____OP___ jtwc_wp WP201980 29.6000 136.900 55 0 29.4000 136.600 4 55 990 9 40 40 2 150 80 0 29.6000 136.700 3 58 980 29.3000 136.500 STS 50 987 29.6000 136.900 TC 55 29.5574 136.817 2 57 12 36
1980256N10154 1980 76 WP MM SPERRY 1980-09-17 21:00:00 TS 29.9175 137.161 main 412 391 PPPP_____PP___ WP201980 30.0025 137.335 57 0 29.8379 137.120 4 55 990 9 40 40 2 150 80 29.9947 137.056 3 58 980 29.6946 136.841 STS 52 986 30.0025 137.335 TC 57 29.9726 137.282 2 58 11 48
1980256N10154 1980 76 WP MM SPERRY 1980-09-18 00:00:00 TS 30.2333 137.650 55 990 tokyo main 399 384 OOOO_____OO___ jtwc_wp WP201980 30.3000 137.800 60 0 30.2000 137.700 4 55 990 9 40 40 2 150 80 0 30.3000 137.500 3 58 980 30.0000 137.300 STS 55 986 30.3000 137.800 TC 60 30.3000 137.800 2 60 10 54
1980256N10154 1980 76 WP MM SPERRY 1980-09-18 03:00:00 TS 30.5307 138.144 main 389 385 PPPP_____PP___ WP201980 30.5370 138.220 62 0 30.5520 138.150 4 57 990 9 40 40 2 150 80 30.6300 138.062 3 58 980 30.3802 137.912 STS 55 985 30.5370 138.220 TC 62 30.5482 138.300 2 61 10 60
1980256N10154 1980 76 WP MM SPERRY 1980-09-18 06:00:00 TS 30.7520 138.690 60 990 tokyo main 398 398 OOOO_____OP___ jtwc_wp WP201980 30.7000 138.700 65 1 30.8000 138.600 4 60 990 9 40 40 2 150 80 0 30.9000 138.700 3 58 980 30.7000 138.600 STS 55 984 30.7000 138.700 TC 65 30.7121 138.842 2 62 10 70
1980256N10154 1980 76 WP MM SPERRY 1980-09-18 09:00:00 TS 30.8840 139.295 main 415 412 PPPP_____PP___ WP201980 30.8152 139.328 65 1 30.8872 139.121 4 60 985 9 40 40 2 150 80 31.0795 139.328 3 58 980 30.8872 139.251 STS 57 982 30.8152 139.328 TC 65 30.8199 139.413 2 63 11 79
1980256N10154 1980 76 WP MM SPERRY 1980-09-18 12:00:00 TS 30.9667 139.933 60 980 tokyo main 414 414 OOOO_____OO___ jtwc_wp WP201980 30.9000 140.000 65 1 30.9000 139.700 4 60 980 9 40 40 3 150 80 0 31.2000 140.000 3 58 980 31.0000 139.900 STS 60 980 30.9000 140.000 TC 65 30.9000 140.000 4 65 11 81
1980256N10154 1980 76 WP MM SPERRY 1980-09-18 15:00:00 TS 31.0659 140.580 main 424 424 PPPP_____PP___ WP201980 31.0071 140.608 65 1 30.9425 140.343 4 60 977 9 40 40 3 150 80 31.3154 140.773 3 58 980 31.1148 140.558 STS 60 977 31.0071 140.608 TC 65 31.0084 140.590 4 65 11 81
1980256N10154 1980 76 WP MM SPERRY 1980-09-18 18:00:00 TS 31.1491 141.215 60 975 tokyo main 440 429 OOOO_____OP___ jtwc_wp WP201980 31.1000 141.200 65 1 31.0000 141.000 4 60 975 9 40 40 3 150 80 0 31.4000 141.500 3 58 980 31.2000 141.200 STS 60 975 31.1000 141.200 TC 65 31.0945 141.193 4 65 11 82
1980256N10154 1980 76 WP MM SPERRY 1980-09-18 21:00:00 TS 31.2169 141.809 main 448 448 PPPP_____PP___ WP201980 31.1573 141.808 65 1 31.1222 141.614 4 62 975 9 35 35 3 150 115 31.4566 142.023 3 63 977 31.2495 141.800 STS 62 972 31.1573 141.808 TC 65 31.1583 141.799 4 65 10 83
1980256N10154 1980 76 WP MM SPERRY 1980-09-19 00:00:00 TS 31.2667 142.383 65 975 tokyo main 463 463 OOOO_____OO___ jtwc_wp WP201980 31.2000 142.400 65 1 31.2000 142.200 5 65 975 9 30 30 9 150 150 0 31.5000 142.500 4 68 975 31.3000 142.400 T 65 970 31.2000 142.400 TC 65 31.2000 142.400 4 65 10 84
1980256N10154 1980 76 WP MM SPERRY 1980-09-19 03:00:00 TS 31.3127 142.963 main 494 494 PPPP_____PP___ WP201980 31.2646 142.950 65 1 31.1222 142.758 5 65 975 9 30 30 9 150 150 31.5648 143.077 4 68 975 31.4149 143.049 T 65 970 31.2646 142.950 TC 65 31.2453 142.994 4 65 10 86
1980256N10154 1980 76 WP MM SPERRY 1980-09-19 06:00:00 TS 31.3278 143.547 65 975 tokyo main 521 521 OOOO_____OP___ jtwc_wp WP201980 31.3000 143.500 65 1 31.0000 143.300 5 65 975 9 30 30 9 150 150 0 31.6000 143.700 4 68 975 31.5000 143.700 T 65 970 31.3000 143.500 TC 65 31.2668 143.579 4 65 10 91
1980256N10154 1980 76 WP MM SPERRY 1980-09-19 09:00:00 TS 31.3016 144.148 main 553 553 PPPP_____PP___ WP201980 31.2799 144.100 65 1 30.9423 143.850 5 65 975 9 30 30 9 150 150 31.5726 144.365 4 63 977 31.4798 144.323 T 65 970 31.2799 144.100 TC 65 31.2548 144.150 4 65 10 95
1980256N10154 1980 76 WP MM SPERRY 1980-09-19 12:00:00 TS 31.2333 144.733 65 975 tokyo main 598 598 OOOO_____OO___ jtwc_wp WP201980 31.2000 144.700 65 1 30.9000 144.400 5 65 975 9 30 30 9 150 150 0 31.5000 145.000 3 58 980 31.4000 144.900 T 65 970 31.2000 144.700 TC 65 31.2000 144.700 4 65 10 100
1980256N10154 1980 76 WP MM SPERRY 1980-09-19 15:00:00 TS 31.1267 145.283 main 645 645 PPPP_____PP___ WP201980 31.0648 145.273 62 0 30.8497 144.942 5 62 977 9 30 30 9 150 150 31.4147 145.537 3 58 980 31.3223 145.430 T 60 975 31.0648 145.273 TC 62 31.0438 145.240 4 62 9 105
1980256N10154 1980 76 WP MM SPERRY 1980-09-19 18:00:00 TS 30.9924 145.793 60 980 tokyo main 686 686 OOOO_____OP___ jtwc_wp WP201980 30.9000 145.800 60 0 30.8000 145.500 4 60 980 9 30 30 9 150 150 0 31.3000 146.000 3 58 980 31.2000 145.900 STS 55 980 30.9000 145.800 TC 60 30.8543 145.756 4 60 9 108
1980256N10154 1980 76 WP MM SPERRY 1980-09-19 21:00:00 TS 30.8440 146.272 main 736 736 PPPP_____PP___ WP201980 30.7271 146.258 57 0 30.7504 146.145 4 50 982 9 9 150 150 31.1647 146.415 3 53 982 31.0072 146.315 STS 50 982 30.7271 146.258 TC 57 30.6877 146.243 4 57 8 109
1980256N10154 1980 76 WP MM SPERRY 1980-09-20 00:00:00 TS 30.7130 146.717 40 985 tokyo main 771 771 OOOO_____OO___ jtwc_wp WP201980 30.6000 146.700 55 0 30.7000 146.700 3 40 985 0 9 150 150 0 31.0000 146.800 3 48 985 30.8000 146.700 TS 45 985 30.6000 146.700 TC 55 30.6000 146.700 2 55 8 107
1980256N10154 1980 76 WP MM SPERRY 1980-09-20 03:00:00 TS 30.6182 147.153 main 814 814 PPPP_____PP___ WP201980 30.5327 147.223 52 0 30.6120 146.995 3 40 985 0 9 150 150 30.7699 147.208 3 48 985 30.6353 147.095 TS 42 987 30.5327 147.223 TC 52 30.6349 147.148 2 52 7 97
1980256N10154 1980 76 WP MM SPERRY 1980-09-20 06:00:00 TS 30.6252 147.551 40 985 tokyo main 842 835 OOOO_____OP___ jtwc_wp WP201980 30.6000 147.700 50 0 30.6000 147.200 3 40 985 0 9 150 150 0 30.6000 147.600 3 48 985 30.5000 147.500 TS 40 990 30.6000 147.700 TC 50 30.7571 147.566 2 50 7 74
1980256N10154 1980 76 WP MM SPERRY 1980-09-20 09:00:00 TS 30.8025 147.892 main 848 848 PPP______PP___ WP201980 30.8547 148.030 47 0 30.7550 147.492 3 42 987 0 9 150 150 30.5973 147.957 3 43 990 TS 30.8547 148.030 TC 47 30.9507 147.952 2 47 7 52
1980256N10154 1980 76 WP MM SPERRY 1980-09-20 12:00:00 TS 31.0600 148.200 45 990 tokyo main 848 848 OOO______OO___ jtwc_wp WP201980 31.2000 148.300 45 0 31.0000 147.800 3 45 990 0 9 150 150 0 30.7000 148.300 2 38 995 31.2000 148.300 TC 45 31.2000 148.300 5 45 7 47
1980256N10154 1980 76 WP MM SPERRY 1980-09-20 15:00:00 TS 31.3074 148.517 main 857 857 PPP______PP___ WP201980 31.4925 148.608 45 0 31.2424 148.100 3 45 992 0 9 150 150 30.8275 148.665 2 38 995 31.4925 148.608 TC 45 31.4821 148.607 5 43 7 45
1980256N10154 1980 76 WP MM SPERRY 1980-09-20 18:00:00 TS 31.5823 148.816 45 994 tokyo main 860 860 OOO______OP___ jtwc_wp WP201980 31.8000 148.900 45 0 31.5000 148.400 3 45 994 0 9 150 150 0 31.0000 149.000 2 38 995 31.8000 148.900 TC 45 31.8116 148.880 5 42 8 40
1980256N10154 1980 76 WP MM SPERRY 1980-09-20 21:00:00 TS 31.8820 149.090 main 866 862 PPP______PP___ WP201980 32.1499 149.158 42 0 31.7651 148.722 3 40 995 0 9 120 120 31.1849 149.273 2 33 997 32.1499 149.158 TC 42 32.1603 149.138 5 41 7 37
1980256N10154 1980 76 WP MM SPERRY 1980-09-21 00:00:00 TS 32.1800 149.340 35 996 tokyo main 865 865 OOO______OO___ jtwc_wp WP201980 32.5000 149.400 40 0 32.0000 149.000 3 35 996 0 9 90 90 0 31.4000 149.500 1 29 1000 32.5000 149.400 TC 40 32.5000 149.400 5 40 7 36
1980256N10154 1980 76 WP MM SPERRY 1980-09-21 03:00:00 TS 32.4454 149.568 main 879 874 PPP______PP___ WP201980 32.8148 149.635 40 0 32.1498 149.158 3 35 997 0 9 90 90 31.6425 149.737 1 29 1000 32.8148 149.635 TC 40 32.8051 149.673 5 40 6 36
1980256N10154 1980 76 WP MM SPERRY 1980-09-21 06:00:00 TS 32.6988 149.791 35 998 tokyo main 882 877 OOO______OP___ jtwc_wp WP201980 33.1000 149.900 40 0 32.3000 149.300 3 35 998 0 9 90 90 0 31.9000 149.900 1 29 1000 33.1000 149.900 TC 40 33.0942 149.956 5 40 7 38
1980256N10154 1980 76 WP MM SPERRY 1980-09-21 09:00:00 TS 32.9582 150.045 main 885 885 PPP______PP___ WP201980 33.3649 150.228 40 0 32.5576 149.557 3 999 0 9 32.1424 149.953 1 29 1000 33.3649 150.228 TC 40 33.3612 150.261 5 40 7 39
1980256N10154 1980 76 WP MM SPERRY 1980-09-21 12:00:00 TS 33.2421 150.321 1000 tokyo main 903 899 OOO______OO___ jtwc_wp WP201980 33.6000 150.600 40 0 32.8000 149.800 2 1000 0 0 0 32.4000 149.900 1 29 1000 33.6000 150.600 TC 40 33.6000 150.600 5 40 7 42
1980256N10154 1980 76 WP MM SPERRY 1980-09-21 15:00:00 TS 33.4880 150.607 main 918 918 PPP______PP___ WP201980 33.8149 150.985 37 0 32.9148 149.893 2 1001 0 0 32.6901 149.770 1 24 1002 33.8149 150.985 TC 37 33.8066 150.983 5 37 6 49
1980256N10154 1980 76 WP MM SPERRY 1980-09-21 18:00:00 TS 33.6400 150.872 1002 tokyo main 941 938 OOO______OP___ jtwc_wp WP201980 34.0000 151.400 35 0 33.0000 150.000 2 1002 0 0 0 33.0000 149.600 0 19 1004 34.0000 151.400 TC 35 33.9867 151.401 5 35 5 63
1980256N10154 1980 76 WP MM SPERRY 1980-09-21 21:00:00 TS 33.7376 151.190 main 965 965 PP_______PP___ WP201980 34.1579 151.842 32 -1 33.1119 150.211 2 1003 0 0 0 34.1579 151.842 TC 32 34.1484 151.844 5 32 4 77
1980256N10154 1980 76 WP MM SPERRY 1980-09-22 00:00:00 TS 33.7286 151.329 1004 tokyo main 974 959 OO_______OO___ jtwc_wp WP201980 34.3000 152.300 30 -1 33.3000 150.600 2 1004 0 0 0 34.3000 152.300 TC 30 34.3000 152.300 5 30 2 194
1980256N10154 1980 76 WP MM SPERRY 1980-09-22 03:00:00 TS 33.5202 151.126 main 962 962 _P____________ WP201980 -1 33.5202 151.126 2 1006 0 0 TC 5 6 64
1980256N10154 1980 76 WP MM SPERRY 1980-09-22 06:00:00 TS 34.0000 152.000 1008 tokyo main 1027 1027 _O____________ -1 34.0000 152.000 2 1008 0 0 0 5 23 53
1980256N10154 1980 76 WP MM SPERRY 1980-09-22 09:00:00 TS 34.9278 153.397 main 1120 1120 _P____________ -1 34.9278 153.397 2 1009 0 0 5 32 51
1980256N10154 1980 76 WP MM SPERRY 1980-09-22 12:00:00 TS 36.0000 155.000 1010 tokyo main 1139 1112 _O____________ -1 36.0000 155.000 2 1010 0 0 0 31 50
1980256N10154 1980 76 WP MM SPERRY 1980-09-22 15:00:00 TS 36.8985 156.332 main 1112 1094 _P____________ -1 36.8985 156.332 2 1011 0 0 27 52
1980256N10154 1980 76 WP MM SPERRY 1980-09-22 18:00:00 TS 37.7000 157.700 1012 tokyo main 1099 1096 _O____________ -1 37.7000 157.700 2 1012 0 0 0 28 56
1980256N10154 1980 76 WP MM SPERRY 1980-09-22 21:00:00 TS 38.4441 159.245 main 1115 1112 _P____________ -1 38.4441 159.245 2 1012 0 0 29 63
1980256N10154 1980 76 WP MM SPERRY 1980-09-23 00:00:00 TS 39.0000 161.000 1012 tokyo main 1168 1168 _O____________ -1 39.0000 161.000 2 1012 0 0 0 31 74
1980256N10154 1980 76 WP MM SPERRY 1980-09-23 03:00:00 TS 39.2693 163.048 main 1272 1272 _P____________ -1 39.2693 163.048 2 1012 0 0 32 83
1980256N10154 1980 76 WP MM SPERRY 1980-09-23 06:00:00 TS 39.4000 165.100 1012 tokyo main 1398 1398 _O____________ -1 39.4000 165.100 2 1012 0 0 0 30 83
1980256N10154 1980 76 WP MM SPERRY 1980-09-23 09:00:00 TS 39.6190 166.889 main 1457 1457 _P____________ -1 39.6190 166.889 2 1012 0 0 26 81
1980256N10154 1980 76 WP MM SPERRY 1980-09-23 12:00:00 TS 39.8000 168.500 1012 tokyo main 1515 1515 _O____________ -1 39.8000 168.500 2 1012 0 0 0 23 86
1980256N10154 1980 76 WP MM SPERRY 1980-09-23 15:00:00 TS 39.7922 169.943 main 1587 1587 _P____________ -1 39.7922 169.943 2 1012 0 0 22 87
1980256N10154 1980 76 WP MM SPERRY 1980-09-23 18:00:00 ET 39.9000 171.400 1012 tokyo main 1661 1661 _O____________ -1 39.9000 171.400 6 1012 0 0 0 25 75
1980256N10154 1980 76 WP MM SPERRY 1980-09-23 21:00:00 ET 40.4574 173.145 main 1692 1692 _P____________ -1 40.4574 173.145 6 1012 0 0 29 68
1980256N10154 1980 76 WP MM SPERRY 1980-09-24 00:00:00 ET 41.0000 175.000 1012 tokyo main 1744 1696 _O____________ -1 41.0000 175.000 6 1012 0 0 0 28 76
1980256N10154 1980 76 WP MM SPERRY 1980-09-24 03:00:00 ET 41.1385 176.787 main 1691 1628 _P____________ -1 41.1385 176.787 6 1012 0 0 26 90
1980256N10154 1980 76 WP MM SPERRY 1980-09-24 06:00:00 ET 41.0000 178.500 1012 tokyo main 1623 _O____________ -1 41.0000 178.500 6 1012 0 0 0 26 96

デジタル台風データ・検索

IBTrACS Databaseについて

本データベースは、米国NOAAが公開する1842年以降の世界の熱帯低気圧のベストトラックデータアーカイブInternational Best Track Archive for Climate Stewardship (IBTrACS)を、ウェブで閲覧しやすい形式に変換したものです。

最終更新日:2021-10-21